sensor_id;sensor_type;location;lat;lon;timestamp;P1;durP1;ratioP1;P2;durP2;ratioP2
13075;SDS011;6604;52.484;13.330;2023-03-11T07:48:35;6.47;;;2.57;;
13075;SDS011;6604;52.484;13.330;2023-03-11T07:51:02;7.93;;;4.40;;
13075;SDS011;6604;52.484;13.330;2023-03-11T07:53:29;5.57;;;3.73;;
13075;SDS011;6604;52.484;13.330;2023-03-11T07:55:56;6.00;;;4.27;;
13075;SDS011;6604;52.484;13.330;2023-03-11T07:58:23;7.23;;;4.10;;
13075;SDS011;6604;52.484;13.330;2023-03-11T08:00:49;6.93;;;4.40;;
13075;SDS011;6604;52.484;13.330;2023-03-11T08:03:16;5.87;;;3.90;;
13075;SDS011;6604;52.484;13.330;2023-03-11T08:05:44;4.70;;;3.70;;
13075;SDS011;6604;52.484;13.330;2023-03-11T08:08:11;7.47;;;4.20;;
13075;SDS011;6604;52.484;13.330;2023-03-11T08:10:37;6.77;;;4.33;;
13075;SDS011;6604;52.484;13.330;2023-03-11T08:13:04;6.37;;;4.10;;
13075;SDS011;6604;52.484;13.330;2023-03-11T08:15:31;6.63;;;4.23;;
13075;SDS011;6604;52.484;13.330;2023-03-11T08:17:57;9.10;;;3.80;;
13075;SDS011;6604;52.484;13.330;2023-03-11T08:20:24;5.10;;;3.77;;
13075;SDS011;6604;52.484;13.330;2023-03-11T08:22:52;4.93;;;4.03;;
13075;SDS011;6604;52.484;13.330;2023-03-11T08:25:18;6.20;;;4.03;;
13075;SDS011;6604;52.484;13.330;2023-03-11T08:27:45;6.73;;;4.20;;
13075;SDS011;6604;52.484;13.330;2023-03-11T08:30:12;7.47;;;3.70;;
13075;SDS011;6604;52.484;13.330;2023-03-11T08:32:38;5.03;;;4.00;;
13075;SDS011;6604;52.484;13.330;2023-03-11T08:35:05;4.83;;;3.30;;
13075;SDS011;6604;52.484;13.330;2023-03-11T08:37:32;7.20;;;4.43;;
13075;SDS011;6604;52.484;13.330;2023-03-11T08:39:59;5.77;;;4.47;;
13075;SDS011;6604;52.484;13.330;2023-03-11T08:42:26;5.10;;;3.73;;
13075;SDS011;6604;52.484;13.330;2023-03-11T08:44:52;8.77;;;4.67;;
13075;SDS011;6604;52.484;13.330;2023-03-11T08:47:19;4.50;;;3.80;;
13075;SDS011;6604;52.484;13.330;2023-03-11T08:49:45;5.10;;;3.63;;
13075;SDS011;6604;52.484;13.330;2023-03-11T08:52:12;6.67;;;4.30;;
13075;SDS011;6604;52.484;13.330;2023-03-11T08:54:38;6.40;;;4.00;;
13075;SDS011;6604;52.484;13.330;2023-03-11T08:57:07;8.73;;;4.10;;
13075;SDS011;6604;52.484;13.330;2023-03-11T08:59:33;4.83;;;3.50;;
13075;SDS011;6604;52.484;13.330;2023-03-11T09:02:00;4.97;;;3.80;;
13075;SDS011;6604;52.484;13.330;2023-03-11T09:04:26;4.40;;;3.10;;
13075;SDS011;6604;52.484;13.330;2023-03-11T09:06:53;5.23;;;3.47;;
13075;SDS011;6604;52.484;13.330;2023-03-11T09:09:19;5.80;;;3.90;;
13075;SDS011;6604;52.484;13.330;2023-03-11T09:11:46;4.80;;;3.60;;
13075;SDS011;6604;52.484;13.330;2023-03-11T09:14:14;5.77;;;3.20;;
13075;SDS011;6604;52.484;13.330;2023-03-11T09:16:41;6.57;;;4.00;;
13075;SDS011;6604;52.484;13.330;2023-03-11T09:19:07;5.20;;;3.43;;
13075;SDS011;6604;52.484;13.330;2023-03-11T09:21:34;5.57;;;3.70;;
13075;SDS011;6604;52.484;13.330;2023-03-11T09:24:01;6.50;;;3.20;;
13075;SDS011;6604;52.484;13.330;2023-03-11T09:26:29;5.73;;;4.00;;
13075;SDS011;6604;52.484;13.330;2023-03-11T09:28:55;6.03;;;3.73;;
13075;SDS011;6604;52.484;13.330;2023-03-11T09:31:23;5.07;;;3.70;;
13075;SDS011;6604;52.484;13.330;2023-03-11T09:33:50;5.30;;;3.50;;
13075;SDS011;6604;52.484;13.330;2023-03-11T09:36:19;6.87;;;3.70;;
13075;SDS011;6604;52.484;13.330;2023-03-11T09:38:46;8.53;;;3.87;;
13075;SDS011;6604;52.484;13.330;2023-03-11T09:41:18;7.07;;;4.33;;
13075;SDS011;6604;52.484;13.330;2023-03-11T09:43:50;7.00;;;4.60;;
13075;SDS011;6604;52.484;13.330;2023-03-11T09:46:26;5.90;;;4.03;;
13075;SDS011;6604;52.484;13.330;2023-03-11T09:48:57;6.47;;;4.17;;
13075;SDS011;6604;52.484;13.330;2023-03-11T09:51:28;6.67;;;4.03;;
13075;SDS011;6604;52.484;13.330;2023-03-11T09:53:58;5.07;;;3.80;;
13075;SDS011;6604;52.484;13.330;2023-03-11T09:56:27;7.23;;;4.80;;
13075;SDS011;6604;52.484;13.330;2023-03-11T09:58:54;5.53;;;4.17;;
13075;SDS011;6604;52.484;13.330;2023-03-11T10:01:22;7.07;;;4.57;;
13075;SDS011;6604;52.484;13.330;2023-03-11T10:03:52;5.27;;;3.97;;
13075;SDS011;6604;52.484;13.330;2023-03-11T10:06:20;6.07;;;3.80;;
13075;SDS011;6604;52.484;13.330;2023-03-11T10:08:49;6.53;;;4.57;;
13075;SDS011;6604;52.484;13.330;2023-03-11T10:11:29;6.60;;;4.30;;
13075;SDS011;6604;52.484;13.330;2023-03-11T10:14:00;6.77;;;4.17;;
13075;SDS011;6604;52.484;13.330;2023-03-11T10:16:30;9.20;;;4.53;;
13075;SDS011;6604;52.484;13.330;2023-03-11T10:19:03;5.80;;;4.43;;
13075;SDS011;6604;52.484;13.330;2023-03-11T10:21:36;6.37;;;4.63;;
13075;SDS011;6604;52.484;13.330;2023-03-11T10:24:17;6.90;;;4.20;;
13075;SDS011;6604;52.484;13.330;2023-03-11T10:26:45;8.77;;;4.73;;
13075;SDS011;6604;52.484;13.330;2023-03-11T10:29:15;6.87;;;5.10;;
13075;SDS011;6604;52.484;13.330;2023-03-11T10:31:43;7.93;;;4.90;;
13075;SDS011;6604;52.484;13.330;2023-03-11T10:34:14;7.77;;;5.03;;
13075;SDS011;6604;52.484;13.330;2023-03-11T10:36:45;7.37;;;4.87;;
13075;SDS011;6604;52.484;13.330;2023-03-11T10:39:15;7.10;;;4.73;;
13075;SDS011;6604;52.484;13.330;2023-03-11T10:41:42;7.13;;;5.07;;
13075;SDS011;6604;52.484;13.330;2023-03-11T10:44:10;8.33;;;5.53;;
13075;SDS011;6604;52.484;13.330;2023-03-11T10:46:39;7.33;;;5.67;;
13075;SDS011;6604;52.484;13.330;2023-03-11T10:49:07;8.17;;;5.33;;
13075;SDS011;6604;52.484;13.330;2023-03-11T10:51:39;7.83;;;5.87;;
13075;SDS011;6604;52.484;13.330;2023-03-11T10:54:08;7.93;;;5.27;;
13075;SDS011;6604;52.484;13.330;2023-03-11T10:56:45;8.70;;;5.80;;
13075;SDS011;6604;52.484;13.330;2023-03-11T10:59:21;8.43;;;6.03;;
13075;SDS011;6604;52.484;13.330;2023-03-11T11:01:52;8.07;;;5.30;;
13075;SDS011;6604;52.484;13.330;2023-03-11T11:04:22;9.20;;;6.20;;
13075;SDS011;6604;52.484;13.330;2023-03-11T11:06:52;9.37;;;6.10;;
13075;SDS011;6604;52.484;13.330;2023-03-11T11:09:19;9.43;;;5.70;;
13075;SDS011;6604;52.484;13.330;2023-03-11T11:11:59;8.50;;;6.10;;
13075;SDS011;6604;52.484;13.330;2023-03-11T11:14:39;9.93;;;6.37;;
13075;SDS011;6604;52.484;13.330;2023-03-11T11:17:12;8.10;;;5.80;;
13075;SDS011;6604;52.484;13.330;2023-03-11T11:19:42;7.00;;;5.33;;
13075;SDS011;6604;52.484;13.330;2023-03-11T11:22:10;8.70;;;5.60;;
13075;SDS011;6604;52.484;13.330;2023-03-11T11:24:42;10.07;;;6.27;;
13075;SDS011;6604;52.484;13.330;2023-03-11T11:27:14;9.43;;;6.60;;
13075;SDS011;6604;52.484;13.330;2023-03-11T11:29:41;8.17;;;6.40;;
13075;SDS011;6604;52.484;13.330;2023-03-11T11:32:17;8.50;;;6.13;;
13075;SDS011;6604;52.484;13.330;2023-03-11T11:34:52;9.00;;;6.20;;
13075;SDS011;6604;52.484;13.330;2023-03-11T11:37:21;9.60;;;6.20;;
13075;SDS011;6604;52.484;13.330;2023-03-11T11:39:51;8.97;;;6.07;;
13075;SDS011;6604;52.484;13.330;2023-03-11T11:42:19;7.60;;;5.77;;
13075;SDS011;6604;52.484;13.330;2023-03-11T11:44:46;10.33;;;5.90;;
13075;SDS011;6604;52.484;13.330;2023-03-11T11:47:15;13.00;;;6.40;;
13075;SDS011;6604;52.484;13.330;2023-03-11T11:49:43;10.47;;;6.77;;
13075;SDS011;6604;52.484;13.330;2023-03-11T11:52:12;10.33;;;6.57;;
13075;SDS011;6604;52.484;13.330;2023-03-11T11:54:42;8.60;;;5.83;;
13075;SDS011;6604;52.484;13.330;2023-03-11T11:57:15;9.03;;;5.97;;
13075;SDS011;6604;52.484;13.330;2023-03-11T11:59:42;10.83;;;5.80;;
13075;SDS011;6604;52.484;13.330;2023-03-11T12:02:15;7.70;;;5.60;;
13075;SDS011;6604;52.484;13.330;2023-03-11T12:04:47;8.57;;;5.70;;
13075;SDS011;6604;52.484;13.330;2023-03-11T12:07:28;9.07;;;6.10;;
13075;SDS011;6604;52.484;13.330;2023-03-11T12:10:01;9.00;;;5.20;;
13075;SDS011;6604;52.484;13.330;2023-03-11T12:12:28;7.80;;;5.90;;
13075;SDS011;6604;52.484;13.330;2023-03-11T12:15:00;9.50;;;5.83;;
13075;SDS011;6604;52.484;13.330;2023-03-11T12:17:28;8.23;;;6.13;;
13075;SDS011;6604;52.484;13.330;2023-03-11T12:19:56;8.90;;;6.20;;
13075;SDS011;6604;52.484;13.330;2023-03-11T12:22:30;8.30;;;5.63;;
13075;SDS011;6604;52.484;13.330;2023-03-11T12:27:48;7.07;;;5.80;;
13075;SDS011;6604;52.484;13.330;2023-03-11T12:30:17;8.60;;;5.87;;
13075;SDS011;6604;52.484;13.330;2023-03-11T12:32:46;8.90;;;6.20;;
13075;SDS011;6604;52.484;13.330;2023-03-11T12:35:18;8.60;;;5.43;;
13075;SDS011;6604;52.484;13.330;2023-03-11T12:37:46;8.60;;;5.77;;
13075;SDS011;6604;52.484;13.330;2023-03-11T12:40:38;6.93;;;5.17;;
13075;SDS011;6604;52.484;13.330;2023-03-11T12:43:23;7.50;;;5.43;;
13075;SDS011;6604;52.484;13.330;2023-03-11T12:45:50;8.67;;;5.00;;
13075;SDS011;6604;52.484;13.330;2023-03-11T12:48:23;6.47;;;5.30;;
13075;SDS011;6604;52.484;13.330;2023-03-11T12:50:50;7.90;;;5.03;;
13075;SDS011;6604;52.484;13.330;2023-03-11T12:53:16;6.83;;;5.23;;
13075;SDS011;6604;52.484;13.330;2023-03-11T12:55:54;6.57;;;4.80;;
13075;SDS011;6604;52.484;13.330;2023-03-11T12:58:37;6.43;;;4.70;;
13075;SDS011;6604;52.484;13.330;2023-03-11T13:03:55;7.97;;;5.13;;
13075;SDS011;6604;52.484;13.330;2023-03-11T13:06:29;8.23;;;5.13;;
13075;SDS011;6604;52.484;13.330;2023-03-11T13:09:00;7.03;;;5.20;;
13075;SDS011;6604;52.484;13.330;2023-03-11T13:11:37;8.90;;;5.60;;
13075;SDS011;6604;52.484;13.330;2023-03-11T13:16:56;7.03;;;5.07;;
13075;SDS011;6604;52.484;13.330;2023-03-11T13:19:36;7.23;;;5.10;;
13075;SDS011;6604;52.484;13.330;2023-03-11T13:22:03;6.43;;;3.93;;
13075;SDS011;6604;52.484;13.330;2023-03-11T13:24:39;9.17;;;4.83;;
13075;SDS011;6604;52.484;13.330;2023-03-11T13:27:06;6.63;;;4.40;;
13075;SDS011;6604;52.484;13.330;2023-03-11T13:29:42;6.73;;;4.40;;
13075;SDS011;6604;52.484;13.330;2023-03-11T13:35:03;5.77;;;4.07;;
13075;SDS011;6604;52.484;13.330;2023-03-11T13:37:33;4.90;;;3.90;;
13075;SDS011;6604;52.484;13.330;2023-03-11T13:40:04;5.17;;;4.00;;
13075;SDS011;6604;52.484;13.330;2023-03-11T13:42:39;4.93;;;3.83;;
13075;SDS011;6604;52.484;13.330;2023-03-11T13:45:11;5.70;;;3.87;;
13075;SDS011;6604;52.484;13.330;2023-03-11T13:47:42;6.83;;;4.00;;
13075;SDS011;6604;52.484;13.330;2023-03-11T13:50:14;4.70;;;3.37;;
13075;SDS011;6604;52.484;13.330;2023-03-11T13:52:45;4.43;;;3.37;;
13075;SDS011;6604;52.484;13.330;2023-03-11T13:55:15;3.23;;;2.90;;
13075;SDS011;6604;52.484;13.330;2023-03-11T13:57:48;3.77;;;3.03;;
13075;SDS011;6604;52.484;13.330;2023-03-11T14:00:15;3.90;;;2.60;;
13075;SDS011;6604;52.484;13.330;2023-03-11T14:02:43;4.13;;;3.00;;
13075;SDS011;6604;52.484;13.330;2023-03-11T14:05:14;4.30;;;3.00;;
13075;SDS011;6604;52.484;13.330;2023-03-11T14:07:41;5.10;;;3.03;;
13075;SDS011;6604;52.484;13.330;2023-03-11T14:10:08;4.27;;;2.43;;
13075;SDS011;6604;52.484;13.330;2023-03-11T14:12:40;4.33;;;3.20;;
13075;SDS011;6604;52.484;13.330;2023-03-11T14:15:07;4.83;;;3.07;;
13075;SDS011;6604;52.484;13.330;2023-03-11T14:17:34;6.70;;;2.93;;
13075;SDS011;6604;52.484;13.330;2023-03-11T14:20:02;6.13;;;3.03;;
13075;SDS011;6604;52.484;13.330;2023-03-11T14:22:32;5.23;;;3.33;;
13075;SDS011;6604;52.484;13.330;2023-03-11T14:24:59;3.97;;;3.10;;
13075;SDS011;6604;52.484;13.330;2023-03-11T14:27:25;4.40;;;3.10;;
13075;SDS011;6604;52.484;13.330;2023-03-11T14:29:52;4.63;;;3.10;;
13075;SDS011;6604;52.484;13.330;2023-03-11T14:32:25;5.30;;;2.57;;
13075;SDS011;6604;52.484;13.330;2023-03-11T14:34:52;5.27;;;3.83;;
13075;SDS011;6604;52.484;13.330;2023-03-11T14:37:22;5.10;;;3.50;;
13075;SDS011;6604;52.484;13.330;2023-03-11T14:39:50;6.20;;;3.70;;
13075;SDS011;6604;52.484;13.330;2023-03-11T14:42:18;6.73;;;3.90;;
13075;SDS011;6604;52.484;13.330;2023-03-11T14:44:47;4.03;;;3.03;;
13075;SDS011;6604;52.484;13.330;2023-03-11T14:47:17;4.70;;;3.33;;
13075;SDS011;6604;52.484;13.330;2023-03-11T14:49:44;5.47;;;3.80;;
13075;SDS011;6604;52.484;13.330;2023-03-11T14:52:15;7.57;;;3.43;;
13075;SDS011;6604;52.484;13.330;2023-03-11T14:54:44;4.57;;;3.33;;
13075;SDS011;6604;52.484;13.330;2023-03-11T14:57:15;4.03;;;2.90;;
13075;SDS011;6604;52.484;13.330;2023-03-11T14:59:43;2.93;;;2.53;;
13075;SDS011;6604;52.484;13.330;2023-03-11T15:02:26;6.03;;;3.03;;
13075;SDS011;6604;52.484;13.330;2023-03-11T15:04:53;3.40;;;2.70;;
13075;SDS011;6604;52.484;13.330;2023-03-11T15:07:20;4.43;;;2.67;;
13075;SDS011;6604;52.484;13.330;2023-03-11T15:09:47;4.10;;;2.70;;
13075;SDS011;6604;52.484;13.330;2023-03-11T15:15:24;6.63;;;2.63;;
13075;SDS011;6604;52.484;13.330;2023-03-11T15:17:52;3.50;;;2.10;;
13075;SDS011;6604;52.484;13.330;2023-03-11T15:20:22;2.23;;;2.03;;
13075;SDS011;6604;52.484;13.330;2023-03-11T15:22:52;4.83;;;2.53;;
13075;SDS011;6604;52.484;13.330;2023-03-11T15:25:21;4.13;;;2.10;;
13075;SDS011;6604;52.484;13.330;2023-03-11T15:27:48;4.03;;;2.47;;
13075;SDS011;6604;52.484;13.330;2023-03-11T15:30:17;3.07;;;2.20;;
13075;SDS011;6604;52.484;13.330;2023-03-11T15:32:45;2.80;;;2.23;;
13075;SDS011;6604;52.484;13.330;2023-03-11T15:35:13;3.27;;;2.60;;
13075;SDS011;6604;52.484;13.330;2023-03-11T15:37:41;3.90;;;2.23;;
13075;SDS011;6604;52.484;13.330;2023-03-11T15:40:09;4.37;;;2.03;;
13075;SDS011;6604;52.484;13.330;2023-03-11T15:42:36;6.20;;;2.43;;
13075;SDS011;6604;52.484;13.330;2023-03-11T15:45:10;2.40;;;2.20;;
13075;SDS011;6604;52.484;13.330;2023-03-11T15:47:38;3.90;;;2.27;;
13075;SDS011;6604;52.484;13.330;2023-03-11T15:50:16;3.77;;;2.10;;
13075;SDS011;6604;52.484;13.330;2023-03-11T15:52:44;3.57;;;1.87;;
13075;SDS011;6604;52.484;13.330;2023-03-11T15:55:11;4.33;;;2.50;;
13075;SDS011;6604;52.484;13.330;2023-03-11T15:57:38;3.23;;;2.40;;
13075;SDS011;6604;52.484;13.330;2023-03-11T16:00:06;3.77;;;2.37;;
13075;SDS011;6604;52.484;13.330;2023-03-11T16:02:39;4.43;;;2.43;;
13075;SDS011;6604;52.484;13.330;2023-03-11T16:05:10;2.87;;;2.10;;
13075;SDS011;6604;52.484;13.330;2023-03-11T16:07:39;2.73;;;2.00;;
13075;SDS011;6604;52.484;13.330;2023-03-11T16:10:06;3.10;;;2.10;;
13075;SDS011;6604;52.484;13.330;2023-03-11T16:12:32;3.10;;;1.93;;
13075;SDS011;6604;52.484;13.330;2023-03-11T16:14:59;4.57;;;2.00;;
13075;SDS011;6604;52.484;13.330;2023-03-11T16:17:25;3.33;;;2.20;;
13075;SDS011;6604;52.484;13.330;2023-03-11T16:19:51;6.53;;;2.03;;
13075;SDS011;6604;52.484;13.330;2023-03-11T16:22:18;4.60;;;2.60;;
13075;SDS011;6604;52.484;13.330;2023-03-11T16:24:48;4.07;;;2.17;;
13075;SDS011;6604;52.484;13.330;2023-03-11T16:27:16;4.73;;;2.03;;
13075;SDS011;6604;52.484;13.330;2023-03-11T16:29:43;2.30;;;1.80;;
13075;SDS011;6604;52.484;13.330;2023-03-11T16:32:10;3.30;;;2.00;;
13075;SDS011;6604;52.484;13.330;2023-03-11T16:34:37;4.10;;;1.97;;
13075;SDS011;6604;52.484;13.330;2023-03-11T16:37:03;3.63;;;2.30;;
13075;SDS011;6604;52.484;13.330;2023-03-11T16:39:30;2.73;;;1.80;;
13075;SDS011;6604;52.484;13.330;2023-03-11T16:41:58;3.23;;;1.80;;
13075;SDS011;6604;52.484;13.330;2023-03-11T16:44:25;3.70;;;1.90;;
13075;SDS011;6604;52.484;13.330;2023-03-11T16:46:51;4.07;;;2.20;;
13075;SDS011;6604;52.484;13.330;2023-03-11T16:49:17;3.90;;;2.10;;
13075;SDS011;6604;52.484;13.330;2023-03-11T16:51:44;3.37;;;1.87;;
13075;SDS011;6604;52.484;13.330;2023-03-11T16:54:11;3.33;;;1.60;;
13075;SDS011;6604;52.484;13.330;2023-03-11T16:56:37;3.63;;;1.93;;
13075;SDS011;6604;52.484;13.330;2023-03-11T16:59:05;2.87;;;2.00;;
13075;SDS011;6604;52.484;13.330;2023-03-11T17:01:32;4.97;;;1.90;;
13075;SDS011;6604;52.484;13.330;2023-03-11T17:04:02;4.63;;;1.87;;
13075;SDS011;6604;52.484;13.330;2023-03-11T17:06:28;4.57;;;1.67;;
13075;SDS011;6604;52.484;13.330;2023-03-11T17:08:55;3.60;;;2.00;;
13075;SDS011;6604;52.484;13.330;2023-03-11T17:11:21;3.60;;;1.73;;
13075;SDS011;6604;52.484;13.330;2023-03-11T17:13:48;3.00;;;1.80;;
13075;SDS011;6604;52.484;13.330;2023-03-11T17:16:16;2.20;;;1.87;;
13075;SDS011;6604;52.484;13.330;2023-03-11T17:18:43;3.67;;;1.57;;
13075;SDS011;6604;52.484;13.330;2023-03-11T17:21:10;2.30;;;1.90;;
13075;SDS011;6604;52.484;13.330;2023-03-11T17:23:37;2.70;;;1.67;;
13075;SDS011;6604;52.484;13.330;2023-03-11T17:26:06;3.30;;;1.77;;
13075;SDS011;6604;52.484;13.330;2023-03-11T17:28:33;3.50;;;1.80;;
13075;SDS011;6604;52.484;13.330;2023-03-11T17:30:59;6.20;;;1.87;;
13075;SDS011;6604;52.484;13.330;2023-03-11T17:33:27;4.10;;;1.93;;
13075;SDS011;6604;52.484;13.330;2023-03-11T17:35:58;5.50;;;2.30;;
13075;SDS011;6604;52.484;13.330;2023-03-11T17:38:25;2.43;;;1.77;;
13075;SDS011;6604;52.484;13.330;2023-03-11T17:40:53;2.47;;;1.80;;
13075;SDS011;6604;52.484;13.330;2023-03-11T17:43:19;3.70;;;2.33;;
13075;SDS011;6604;52.484;13.330;2023-03-11T17:45:46;3.27;;;2.37;;
13075;SDS011;6604;52.484;13.330;2023-03-11T17:48:13;2.73;;;2.37;;
13075;SDS011;6604;52.484;13.330;2023-03-11T17:50:41;4.47;;;2.20;;
13075;SDS011;6604;52.484;13.330;2023-03-11T17:53:07;7.40;;;1.93;;
13075;SDS011;6604;52.484;13.330;2023-03-11T17:55:36;3.20;;;2.20;;
13075;SDS011;6604;52.484;13.330;2023-03-11T17:58:03;4.50;;;2.50;;
13075;SDS011;6604;52.484;13.330;2023-03-11T18:00:30;3.03;;;2.03;;
13075;SDS011;6604;52.484;13.330;2023-03-11T18:02:57;3.87;;;2.37;;
13075;SDS011;6604;52.484;13.330;2023-03-11T18:05:23;3.70;;;2.27;;
13075;SDS011;6604;52.484;13.330;2023-03-11T18:07:51;4.27;;;2.07;;
13075;SDS011;6604;52.484;13.330;2023-03-11T18:10:18;4.00;;;2.47;;
13075;SDS011;6604;52.484;13.330;2023-03-11T18:12:45;4.07;;;2.23;;
13075;SDS011;6604;52.484;13.330;2023-03-11T18:15:13;4.13;;;2.10;;
13075;SDS011;6604;52.484;13.330;2023-03-11T18:17:43;2.93;;;2.37;;
13075;SDS011;6604;52.484;13.330;2023-03-11T18:20:10;4.70;;;2.30;;
13075;SDS011;6604;52.484;13.330;2023-03-11T18:22:37;6.80;;;2.37;;
13075;SDS011;6604;52.484;13.330;2023-03-11T18:25:06;2.90;;;2.10;;
13075;SDS011;6604;52.484;13.330;2023-03-11T18:27:34;4.50;;;2.50;;
13075;SDS011;6604;52.484;13.330;2023-03-11T18:30:00;3.47;;;2.03;;
13075;SDS011;6604;52.484;13.330;2023-03-11T18:32:27;10.03;;;2.40;;
13075;SDS011;6604;52.484;13.330;2023-03-11T18:34:53;2.73;;;1.90;;
13075;SDS011;6604;52.484;13.330;2023-03-11T18:37:20;4.37;;;2.23;;
13075;SDS011;6604;52.484;13.330;2023-03-11T18:39:46;2.73;;;1.83;;
13075;SDS011;6604;52.484;13.330;2023-03-11T18:42:14;5.07;;;2.03;;
13075;SDS011;6604;52.484;13.330;2023-03-11T18:44:41;3.63;;;2.20;;
13075;SDS011;6604;52.484;13.330;2023-03-11T18:47:07;4.40;;;1.90;;
13075;SDS011;6604;52.484;13.330;2023-03-11T18:49:34;3.17;;;2.13;;
13075;SDS011;6604;52.484;13.330;2023-03-11T18:52:00;4.60;;;2.10;;
13075;SDS011;6604;52.484;13.330;2023-03-11T18:54:27;5.50;;;1.97;;
13075;SDS011;6604;52.484;13.330;2023-03-11T18:56:53;7.90;;;2.20;;
13075;SDS011;6604;52.484;13.330;2023-03-11T18:59:21;3.83;;;2.03;;
13075;SDS011;6604;52.484;13.330;2023-03-11T19:01:48;3.47;;;1.80;;
13075;SDS011;6604;52.484;13.330;2023-03-11T19:04:14;2.87;;;1.60;;
13075;SDS011;6604;52.484;13.330;2023-03-11T19:06:41;1.83;;;1.60;;
13075;SDS011;6604;52.484;13.330;2023-03-11T19:09:08;2.80;;;1.60;;
13075;SDS011;6604;52.484;13.330;2023-03-11T19:11:35;7.33;;;2.07;;
13075;SDS011;6604;52.484;13.330;2023-03-11T19:14:02;4.63;;;2.17;;
13075;SDS011;6604;52.484;13.330;2023-03-11T19:16:30;4.40;;;2.10;;
13075;SDS011;6604;52.484;13.330;2023-03-11T19:18:56;3.40;;;1.97;;
13075;SDS011;6604;52.484;13.330;2023-03-11T19:21:23;5.60;;;2.00;;
13075;SDS011;6604;52.484;13.330;2023-03-11T19:23:49;2.57;;;1.87;;
13075;SDS011;6604;52.484;13.330;2023-03-11T19:26:19;2.90;;;1.80;;
13075;SDS011;6604;52.484;13.330;2023-03-11T19:28:45;3.00;;;1.80;;
13075;SDS011;6604;52.484;13.330;2023-03-11T19:31:13;2.80;;;1.70;;
13075;SDS011;6604;52.484;13.330;2023-03-11T19:33:42;2.40;;;1.70;;
13075;SDS011;6604;52.484;13.330;2023-03-11T19:36:11;4.60;;;1.77;;
13075;SDS011;6604;52.484;13.330;2023-03-11T19:38:37;3.63;;;2.10;;
13075;SDS011;6604;52.484;13.330;2023-03-11T19:41:05;4.83;;;1.70;;
13075;SDS011;6604;52.484;13.330;2023-03-11T19:43:32;3.00;;;1.57;;
13075;SDS011;6604;52.484;13.330;2023-03-11T19:45:59;2.00;;;1.70;;
13075;SDS011;6604;52.484;13.330;2023-03-11T19:48:26;4.27;;;1.93;;
13075;SDS011;6604;52.484;13.330;2023-03-11T19:50:53;3.20;;;1.90;;
13075;SDS011;6604;52.484;13.330;2023-03-11T19:53:22;2.03;;;1.80;;
13075;SDS011;6604;52.484;13.330;2023-03-11T19:55:50;4.23;;;1.47;;
13075;SDS011;6604;52.484;13.330;2023-03-11T19:58:17;4.83;;;1.80;;
13075;SDS011;6604;52.484;13.330;2023-03-11T20:00:43;1.67;;;1.30;;
13075;SDS011;6604;52.484;13.330;2023-03-11T20:03:10;3.93;;;1.57;;
13075;SDS011;6604;52.484;13.330;2023-03-11T20:05:37;4.03;;;1.53;;
13075;SDS011;6604;52.484;13.330;2023-03-11T20:08:06;2.60;;;1.70;;
13075;SDS011;6604;52.484;13.330;2023-03-11T20:10:33;2.73;;;1.53;;
13075;SDS011;6604;52.484;13.330;2023-03-11T20:13:02;2.67;;;1.57;;
13075;SDS011;6604;52.484;13.330;2023-03-11T20:15:28;4.60;;;1.97;;
13075;SDS011;6604;52.484;13.330;2023-03-11T20:17:55;4.23;;;1.70;;
13075;SDS011;6604;52.484;13.330;2023-03-11T20:20:22;2.87;;;1.80;;
13075;SDS011;6604;52.484;13.330;2023-03-11T20:22:48;2.17;;;1.50;;
13075;SDS011;6604;52.484;13.330;2023-03-11T20:25:16;2.67;;;1.23;;
13075;SDS011;6604;52.484;13.330;2023-03-11T20:27:43;4.37;;;1.60;;
13075;SDS011;6604;52.484;13.330;2023-03-11T20:30:10;1.43;;;1.20;;
13075;SDS011;6604;52.484;13.330;2023-03-11T20:32:37;3.00;;;1.40;;
13075;SDS011;6604;52.484;13.330;2023-03-11T20:35:03;2.70;;;1.33;;
13075;SDS011;6604;52.484;13.330;2023-03-11T20:37:30;2.17;;;1.30;;
13075;SDS011;6604;52.484;13.330;2023-03-11T20:39:57;2.40;;;1.57;;
13075;SDS011;6604;52.484;13.330;2023-03-11T20:42:24;1.93;;;1.50;;
13075;SDS011;6604;52.484;13.330;2023-03-11T20:44:52;1.43;;;1.27;;
13075;SDS011;6604;52.484;13.330;2023-03-11T20:47:19;13.50;;;4.90;;
13075;SDS011;6604;52.484;13.330;2023-03-11T20:49:45;4.60;;;1.90;;
13075;SDS011;6604;52.484;13.330;2023-03-11T20:52:12;3.33;;;1.20;;
13075;SDS011;6604;52.484;13.330;2023-03-11T20:54:38;2.43;;;1.40;;
13075;SDS011;6604;52.484;13.330;2023-03-11T20:57:05;3.57;;;1.70;;
13075;SDS011;6604;52.484;13.330;2023-03-11T20:59:33;5.63;;;1.50;;
13075;SDS011;6604;52.484;13.330;2023-03-11T21:01:59;2.57;;;1.43;;
13075;SDS011;6604;52.484;13.330;2023-03-11T21:04:26;2.17;;;1.30;;
13075;SDS011;6604;52.484;13.330;2023-03-11T21:06:52;3.47;;;1.93;;
13075;SDS011;6604;52.484;13.330;2023-03-11T21:09:19;1.93;;;1.10;;
13075;SDS011;6604;52.484;13.330;2023-03-11T21:11:46;3.40;;;1.30;;
13075;SDS011;6604;52.484;13.330;2023-03-11T21:14:13;1.83;;;1.23;;
13075;SDS011;6604;52.484;13.330;2023-03-11T21:16:41;4.33;;;1.30;;
13075;SDS011;6604;52.484;13.330;2023-03-11T21:19:09;7.90;;;2.90;;
13075;SDS011;6604;52.484;13.330;2023-03-11T21:21:35;3.87;;;1.20;;
13075;SDS011;6604;52.484;13.330;2023-03-11T21:24:02;5.70;;;1.37;;
13075;SDS011;6604;52.484;13.330;2023-03-11T21:26:28;2.70;;;1.17;;
13075;SDS011;6604;52.484;13.330;2023-03-11T21:28:55;4.67;;;1.63;;
13075;SDS011;6604;52.484;13.330;2023-03-11T21:31:23;3.67;;;1.03;;
13075;SDS011;6604;52.484;13.330;2023-03-11T21:33:52;2.20;;;1.27;;
13075;SDS011;6604;52.484;13.330;2023-03-11T21:36:20;5.07;;;1.33;;
13075;SDS011;6604;52.484;13.330;2023-03-11T21:38:46;5.03;;;1.70;;
13075;SDS011;6604;52.484;13.330;2023-03-11T21:41:13;4.37;;;1.83;;
13075;SDS011;6604;52.484;13.330;2023-03-11T21:43:40;1.43;;;1.27;;
13075;SDS011;6604;52.484;13.330;2023-03-11T21:46:07;4.17;;;1.10;;
13075;SDS011;6604;52.484;13.330;2023-03-11T21:48:34;3.23;;;1.70;;
13075;SDS011;6604;52.484;13.330;2023-03-11T21:51:02;3.40;;;1.40;;
13075;SDS011;6604;52.484;13.330;2023-03-11T21:53:29;2.60;;;1.27;;
13075;SDS011;6604;52.484;13.330;2023-03-11T21:55:55;2.83;;;1.20;;
13075;SDS011;6604;52.484;13.330;2023-03-11T21:58:23;2.27;;;1.07;;
13075;SDS011;6604;52.484;13.330;2023-03-11T22:00:49;2.97;;;1.00;;
13075;SDS011;6604;52.484;13.330;2023-03-11T22:03:16;2.83;;;1.40;;
13075;SDS011;6604;52.484;13.330;2023-03-11T22:05:43;3.77;;;1.60;;
13075;SDS011;6604;52.484;13.330;2023-03-11T22:08:11;5.17;;;1.70;;
13075;SDS011;6604;52.484;13.330;2023-03-11T22:10:38;2.70;;;1.47;;
13075;SDS011;6604;52.484;13.330;2023-03-11T22:13:05;1.50;;;1.33;;
13075;SDS011;6604;52.484;13.330;2023-03-11T22:15:32;1.40;;;1.30;;
13075;SDS011;6604;52.484;13.330;2023-03-11T22:17:59;3.13;;;1.13;;
13075;SDS011;6604;52.484;13.330;2023-03-11T22:20:25;3.33;;;1.13;;
13075;SDS011;6604;52.484;13.330;2023-03-11T22:22:52;6.23;;;1.20;;
13075;SDS011;6604;52.484;13.330;2023-03-11T22:25:20;5.10;;;1.40;;
13075;SDS011;6604;52.484;13.330;2023-03-11T22:27:47;1.77;;;1.30;;
13075;SDS011;6604;52.484;13.330;2023-03-11T22:30:13;4.17;;;1.43;;
13075;SDS011;6604;52.484;13.330;2023-03-11T22:32:40;6.97;;;3.87;;
13075;SDS011;6604;52.484;13.330;2023-03-11T22:35:07;3.83;;;1.47;;
13075;SDS011;6604;52.484;13.330;2023-03-11T22:37:34;3.33;;;1.23;;
13075;SDS011;6604;52.484;13.330;2023-03-11T22:40:00;2.03;;;1.10;;
13075;SDS011;6604;52.484;13.330;2023-03-11T22:42:32;2.10;;;1.10;;
13075;SDS011;6604;52.484;13.330;2023-03-11T22:44:59;3.53;;;1.57;;
13075;SDS011;6604;52.484;13.330;2023-03-11T22:47:25;2.03;;;1.20;;
13075;SDS011;6604;52.484;13.330;2023-03-11T22:49:52;2.07;;;0.77;;
13075;SDS011;6604;52.484;13.330;2023-03-11T22:52:18;3.53;;;1.10;;
13075;SDS011;6604;52.484;13.330;2023-03-11T22:54:45;1.67;;;1.03;;
13075;SDS011;6604;52.484;13.330;2023-03-11T22:57:11;2.10;;;1.10;;